createdAt,value
2023-02-17T00:01:36.308Z,54.30
2023-02-17T00:08:13.710Z,44.00
2023-02-17T00:10:42.392Z,52.40
2023-02-17T00:13:10.745Z,45.80
2023-02-17T00:15:40.008Z,51.60
2023-02-17T00:18:08.115Z,48.40
2023-02-17T00:20:40.275Z,53.90
2023-02-17T00:23:08.492Z,48.30
2023-02-17T00:25:38.152Z,49.90
2023-02-17T00:28:06.593Z,46.90
2023-02-17T00:30:34.744Z,49.20
2023-02-17T00:33:03.776Z,47.10
2023-02-17T00:35:31.937Z,53.20
2023-02-17T00:38:00.143Z,57.50
2023-02-17T00:40:28.394Z,51.00
2023-02-17T00:42:57.105Z,51.30
2023-02-17T00:45:26.566Z,52.30
2023-02-17T00:47:57.062Z,43.60
2023-02-17T00:50:25.193Z,47.70
2023-02-17T00:52:53.307Z,49.50
2023-02-17T00:55:21.615Z,48.80
2023-02-17T00:57:49.977Z,48.90
2023-02-17T01:00:20.255Z,50.20
2023-02-17T01:02:48.445Z,49.00
2023-02-17T01:05:18.169Z,52.30
2023-02-17T01:07:48.313Z,53.00
2023-02-17T01:10:16.635Z,43.50
2023-02-17T01:12:45.549Z,46.00
2023-02-17T01:15:13.723Z,47.20
2023-02-17T01:17:44.565Z,50.40
2023-02-17T01:20:12.898Z,47.70
2023-02-17T01:22:41.045Z,45.00
2023-02-17T01:25:09.430Z,43.00
2023-02-17T01:27:37.740Z,47.40
2023-02-17T01:30:06.463Z,47.20
2023-02-17T01:32:34.674Z,44.40
2023-02-17T01:35:03.251Z,41.80
2023-02-17T01:37:34.793Z,47.70
2023-02-17T01:40:03.809Z,41.20
2023-02-17T01:42:33.073Z,43.00
2023-02-17T01:45:19.671Z,44.50
2023-02-17T01:47:56.663Z,38.80
2023-02-17T01:50:28.622Z,40.40
2023-02-17T01:52:57.693Z,45.70
2023-02-17T01:55:25.871Z,47.80
2023-02-17T01:57:54.388Z,45.80
2023-02-17T02:00:22.672Z,43.30
2023-02-17T02:02:54.757Z,41.20
2023-02-17T02:05:23.350Z,44.10
2023-02-17T02:07:51.572Z,46.40
2023-02-17T02:10:20.354Z,41.90
2023-02-17T02:12:49.061Z,46.30
2023-02-17T02:15:21.714Z,45.40
2023-02-17T02:18:10.293Z,49.80
2023-02-17T02:21:26.297Z,44.40
2023-02-17T02:24:07.081Z,51.50
2023-02-17T02:27:04.216Z,47.10
2023-02-17T02:29:54.382Z,59.30
2023-02-17T02:32:28.397Z,51.30
2023-02-17T02:34:59.373Z,59.60
2023-02-17T02:37:32.952Z,53.90
2023-02-17T02:40:04.652Z,47.50
2023-02-17T02:42:33.555Z,51.00
2023-02-17T02:45:02.368Z,59.70
2023-02-17T02:47:35.962Z,56.80
2023-02-17T02:50:04.196Z,54.90
2023-02-17T02:52:56.985Z,58.40
2023-02-17T02:55:37.708Z,54.00
2023-02-17T02:58:08.453Z,51.40
2023-02-17T03:00:46.944Z,53.70
2023-02-17T03:03:27.712Z,49.40
2023-02-17T03:05:57.962Z,42.60
2023-02-17T03:08:34.406Z,46.10
2023-02-17T03:11:03.007Z,44.60
2023-02-17T03:13:39.447Z,43.20
2023-02-17T03:16:09.392Z,40.00
2023-02-17T03:18:38.204Z,36.60
2023-02-17T03:21:11.421Z,38.00
2023-02-17T03:23:39.673Z,38.50
2023-02-17T03:26:07.957Z,39.80
2023-02-17T03:28:36.235Z,42.30
2023-02-17T03:31:04.738Z,39.30
2023-02-17T03:33:33.200Z,38.60
2023-02-17T03:36:01.818Z,38.40
2023-02-17T03:38:32.797Z,48.40
2023-02-17T03:41:01.082Z,36.40
2023-02-17T03:43:30.230Z,34.60
2023-02-17T03:46:00.356Z,35.50
2023-02-17T03:48:28.623Z,31.70
2023-02-17T03:50:56.758Z,36.20
2023-02-17T03:53:24.967Z,29.90
2023-02-17T03:55:53.188Z,35.30
2023-02-17T03:58:21.369Z,30.50
2023-02-17T04:00:49.510Z,29.10
2023-02-17T04:03:17.666Z,27.30
2023-02-17T04:05:46.675Z,31.80
2023-02-17T04:08:14.849Z,26.40
2023-02-17T04:10:43.008Z,29.40
2023-02-17T04:13:11.531Z,35.30
2023-02-17T04:15:44.779Z,28.30
2023-02-17T04:18:13.085Z,28.50
2023-02-17T04:20:41.231Z,29.50
2023-02-17T04:23:10.158Z,30.90
2023-02-17T04:25:38.423Z,26.30
2023-02-17T04:28:08.554Z,33.10
2023-02-17T04:30:36.782Z,32.90
2023-02-17T04:33:08.450Z,26.30
2023-02-17T04:35:36.699Z,27.70
2023-02-17T04:38:06.942Z,29.50
2023-02-17T04:40:35.893Z,24.60
2023-02-17T04:43:05.096Z,27.20
2023-02-17T04:45:33.206Z,26.30
2023-02-17T04:48:07.083Z,29.40
2023-02-17T04:50:36.052Z,32.30
2023-02-17T04:53:04.216Z,26.00
2023-02-17T04:55:33.647Z,26.90
2023-02-17T04:58:02.174Z,30.10
2023-02-17T05:00:30.765Z,31.00
2023-02-17T05:02:58.977Z,28.10
2023-02-17T05:05:27.199Z,27.00
2023-02-17T05:07:55.377Z,26.80
2023-02-17T05:10:24.143Z,28.10
2023-02-17T05:12:53.449Z,35.00
2023-02-17T05:15:22.002Z,33.90
2023-02-17T05:17:50.446Z,31.10
2023-02-17T05:20:18.866Z,38.80
2023-02-17T05:22:47.460Z,35.80
2023-02-17T05:25:16.190Z,41.90
2023-02-17T05:27:45.620Z,38.50
2023-02-17T05:30:14.045Z,35.90
2023-02-17T05:32:42.186Z,32.20
2023-02-17T05:35:10.403Z,36.30
2023-02-17T05:37:40.686Z,34.90
2023-02-17T05:40:09.399Z,35.50
2023-02-17T05:42:37.510Z,37.50
2023-02-17T05:45:05.957Z,39.80
2023-02-17T05:47:35.672Z,38.10
2023-02-17T05:50:04.269Z,31.00
2023-02-17T05:52:32.582Z,30.30
2023-02-17T05:55:00.916Z,36.70
2023-02-17T05:57:30.789Z,42.20
2023-02-17T05:59:58.958Z,33.40
2023-02-17T06:02:27.253Z,37.20
2023-02-17T06:04:55.518Z,34.20
2023-02-17T06:07:24.242Z,32.20
2023-02-17T06:09:55.463Z,32.40
2023-02-17T06:12:23.943Z,30.70
2023-02-17T06:14:52.451Z,30.90
2023-02-17T06:17:25.693Z,33.70
2023-02-17T06:19:55.327Z,33.50
2023-02-17T06:22:23.403Z,32.10
2023-02-17T06:24:51.788Z,39.70
2023-02-17T06:27:20.019Z,40.60
2023-02-17T06:29:49.900Z,34.30
2023-02-17T06:32:18.993Z,39.80
2023-02-17T06:34:51.495Z,41.30
2023-02-17T06:37:19.759Z,38.40
2023-02-17T06:39:48.034Z,37.40
2023-02-17T06:42:16.400Z,29.50
2023-02-17T06:44:48.364Z,36.50
2023-02-17T06:47:16.545Z,33.80
2023-02-17T06:49:44.624Z,30.30
2023-02-17T06:52:12.875Z,32.40
2023-02-17T06:54:41.439Z,37.40
2023-02-17T06:57:10.058Z,30.60
2023-02-17T06:59:38.370Z,39.50
2023-02-17T07:02:06.880Z,31.90
2023-02-17T07:04:37.365Z,34.00
2023-02-17T07:07:06.692Z,32.80
2023-02-17T07:09:34.944Z,37.10
2023-02-17T07:12:03.659Z,37.40
2023-02-17T07:14:33.068Z,45.70
2023-02-17T07:17:01.445Z,35.50
2023-02-17T07:19:35.480Z,33.30
2023-02-17T07:22:03.970Z,39.00
2023-02-17T07:24:32.282Z,36.60
2023-02-17T07:27:01.102Z,39.60
2023-02-17T07:29:30.387Z,35.80
2023-02-17T07:31:59.105Z,32.90
2023-02-17T07:34:27.510Z,35.30
2023-02-17T07:36:56.308Z,34.20
2023-02-17T07:39:24.603Z,35.10
2023-02-17T07:42:01.219Z,31.80
2023-02-17T07:44:29.730Z,29.00
2023-02-17T07:46:57.928Z,29.40
2023-02-17T07:49:27.251Z,31.20
2023-02-17T07:51:55.372Z,30.40
2023-02-17T07:54:23.547Z,34.90
2023-02-17T07:56:51.902Z,36.10
2023-02-17T07:59:20.091Z,32.50
2023-02-17T08:01:48.985Z,28.60
2023-02-17T08:04:19.109Z,34.80
2023-02-17T08:06:50.239Z,28.80
2023-02-17T08:09:37.042Z,28.50
2023-02-17T08:12:35.842Z,32.90
2023-02-17T08:15:07.868Z,40.60
2023-02-17T08:17:37.205Z,35.00
2023-02-17T08:20:09.171Z,37.10
2023-02-17T08:22:40.139Z,36.10
2023-02-17T08:25:08.551Z,43.40
2023-02-17T08:27:36.696Z,36.20
2023-02-17T08:30:05.799Z,33.90
2023-02-17T08:32:34.027Z,34.60
2023-02-17T08:35:02.467Z,32.00
2023-02-17T08:37:31.969Z,37.80
2023-02-17T08:40:00.316Z,41.00
2023-02-17T08:42:28.657Z,38.10
2023-02-17T08:44:56.909Z,43.50
2023-02-17T08:47:25.156Z,43.90
2023-02-17T08:49:53.332Z,37.30
2023-02-17T08:52:21.601Z,33.30
2023-02-17T08:54:52.804Z,38.10
2023-02-17T08:57:22.589Z,33.00
2023-02-17T08:59:50.771Z,35.50
2023-02-17T09:02:18.913Z,36.30
2023-02-17T09:04:47.189Z,40.50
2023-02-17T09:07:16.694Z,36.80
2023-02-17T09:09:44.776Z,33.90
2023-02-17T09:12:17.625Z,39.10
2023-02-17T09:14:45.748Z,39.50
2023-02-17T09:17:13.824Z,37.20
2023-02-17T09:19:42.002Z,39.20
2023-02-17T09:22:13.606Z,36.40
2023-02-17T09:24:46.907Z,31.60
2023-02-17T09:27:15.466Z,32.90
2023-02-17T09:29:45.810Z,34.30
2023-02-17T09:32:14.383Z,35.20
2023-02-17T09:34:49.813Z,27.70
2023-02-17T09:37:18.110Z,32.40
2023-02-17T09:39:46.917Z,32.00
2023-02-17T09:42:26.220Z,29.20
2023-02-17T09:45:04.846Z,32.60
2023-02-17T09:47:44.325Z,36.20
2023-02-17T09:50:14.550Z,35.50
2023-02-17T09:53:01.054Z,35.90
2023-02-17T09:55:39.309Z,39.40
2023-02-17T09:58:12.860Z,37.60
2023-02-17T10:00:47.159Z,36.60
2023-02-17T10:03:26.044Z,37.90
2023-02-17T10:06:20.189Z,36.80
2023-02-17T10:09:04.126Z,39.70
2023-02-17T10:11:38.742Z,34.50
2023-02-17T10:14:33.068Z,39.40
2023-02-17T10:17:18.549Z,36.70
2023-02-17T10:20:09.920Z,39.70
2023-02-17T10:22:38.542Z,37.60
2023-02-17T10:25:24.180Z,39.10
2023-02-17T10:28:04.443Z,43.40
2023-02-17T10:30:41.217Z,40.00
2023-02-17T10:33:38.134Z,40.80
2023-02-17T10:36:36.773Z,41.20
2023-02-17T10:40:03.982Z,40.10
2023-02-17T10:42:35.121Z,42.00
2023-02-17T10:45:17.077Z,46.80
2023-02-17T10:50:20.763Z,40.10
2023-02-17T10:52:49.233Z,41.50
2023-02-17T10:55:39.066Z,40.80
2023-02-17T10:58:13.709Z,43.80
2023-02-17T11:00:43.190Z,39.10
2023-02-17T11:03:21.339Z,37.70
2023-02-17T11:05:53.978Z,39.50
2023-02-17T11:08:30.425Z,38.40
2023-02-17T11:11:14.046Z,36.50
2023-02-17T11:14:04.713Z,39.20
2023-02-17T11:16:40.843Z,36.30
2023-02-17T11:19:20.311Z,39.00
2023-02-17T11:21:48.556Z,33.30
2023-02-17T11:24:18.183Z,38.40
2023-02-17T11:26:57.068Z,34.90
2023-02-17T11:29:29.892Z,37.80
2023-02-17T11:32:02.450Z,35.10
2023-02-17T11:34:33.146Z,34.90
2023-02-17T11:37:13.407Z,34.00
2023-02-17T11:39:45.902Z,31.70
2023-02-17T11:42:21.828Z,33.20
2023-02-17T11:44:50.200Z,39.00
2023-02-17T11:47:33.728Z,35.50
2023-02-17T11:50:39.027Z,29.70
2023-02-17T11:53:17.980Z,35.60
2023-02-17T11:56:09.799Z,31.80
2023-02-17T11:59:15.421Z,33.30
2023-02-17T12:02:07.076Z,33.50
2023-02-17T12:05:09.535Z,33.90
2023-02-17T12:07:47.094Z,32.10
2023-02-17T12:10:24.666Z,36.60
2023-02-17T12:13:00.905Z,32.30
2023-02-17T12:15:39.980Z,43.80
2023-02-17T12:18:18.909Z,41.40
2023-02-17T12:21:06.019Z,45.30
2023-02-17T12:23:52.932Z,32.10
2023-02-17T12:26:28.931Z,35.60
2023-02-17T12:29:20.669Z,32.20
2023-02-17T12:32:04.342Z,35.40
2023-02-17T12:34:37.263Z,37.40
2023-02-17T12:37:06.461Z,37.70
2023-02-17T12:39:48.671Z,32.10
2023-02-17T12:42:22.208Z,34.40
2023-02-17T12:44:55.951Z,36.60
2023-02-17T12:47:50.283Z,34.00
2023-02-17T12:50:24.994Z,35.20
2023-02-17T12:52:54.973Z,30.00
2023-02-17T12:55:26.989Z,36.50
2023-02-17T12:58:00.784Z,39.80
2023-02-17T13:00:52.996Z,40.10
2023-02-17T13:03:21.721Z,40.10
2023-02-17T13:06:03.157Z,30.90
2023-02-17T13:08:55.060Z,34.40
2023-02-17T13:11:31.584Z,34.00
2023-02-17T13:14:40.331Z,35.30
2023-02-17T13:17:28.967Z,34.30
2023-02-17T13:20:12.421Z,34.70
2023-02-17T13:22:43.943Z,39.20
2023-02-17T13:25:13.888Z,39.00
2023-02-17T13:27:43.546Z,36.90
2023-02-17T13:30:17.958Z,34.80
2023-02-17T13:32:46.667Z,34.10
2023-02-17T13:35:26.096Z,37.60
2023-02-17T13:37:54.789Z,34.70
2023-02-17T13:40:24.274Z,35.90
2023-02-17T13:42:55.415Z,39.20
2023-02-17T13:45:42.887Z,37.90
2023-02-17T13:48:14.265Z,44.90
2023-02-17T13:50:50.692Z,43.10
2023-02-17T13:53:22.913Z,32.70
2023-02-17T13:55:52.982Z,34.30
2023-02-17T13:58:24.438Z,37.20
2023-02-17T14:00:54.562Z,32.50
2023-02-17T14:03:27.356Z,30.00
2023-02-17T14:05:57.542Z,35.20
2023-02-17T14:08:43.953Z,28.70
2023-02-17T14:11:13.791Z,35.30
2023-02-17T14:13:45.846Z,33.00
2023-02-17T14:16:39.460Z,38.50
2023-02-17T14:19:15.711Z,43.50
2023-02-17T14:21:56.882Z,35.30
2023-02-17T14:24:25.792Z,34.80
2023-02-17T14:27:05.843Z,34.70
2023-02-17T14:29:48.096Z,38.90
2023-02-17T14:32:35.495Z,39.10
2023-02-17T14:35:08.549Z,37.30
2023-02-17T14:37:37.193Z,36.00
2023-02-17T14:40:13.974Z,36.00
2023-02-17T14:42:42.531Z,33.30
2023-02-17T14:45:10.976Z,35.50
2023-02-17T14:47:39.171Z,31.70
2023-02-17T14:50:07.925Z,37.30
2023-02-17T14:52:41.890Z,32.20
2023-02-17T14:55:35.202Z,35.30
2023-02-17T14:58:03.614Z,33.60
2023-02-17T15:00:33.657Z,40.00
2023-02-17T15:03:01.961Z,40.20
2023-02-17T15:05:30.438Z,39.30
2023-02-17T15:08:00.255Z,36.80
2023-02-17T15:10:28.748Z,44.40
2023-02-17T15:12:56.938Z,40.60
2023-02-17T15:15:28.741Z,44.30
2023-02-17T15:17:57.905Z,37.90
2023-02-17T15:20:26.416Z,50.10
2023-02-17T15:22:54.558Z,46.10
2023-02-17T15:25:23.391Z,43.80
2023-02-17T15:27:52.081Z,42.20
2023-02-17T15:30:20.903Z,48.80
2023-02-17T15:32:51.008Z,45.50
2023-02-17T15:35:28.678Z,50.90
2023-02-17T15:37:57.937Z,40.40
2023-02-17T15:40:27.176Z,43.50
2023-02-17T15:43:01.193Z,52.10
2023-02-17T15:45:29.584Z,50.10
2023-02-17T15:48:12.708Z,45.30
2023-02-17T15:50:41.712Z,41.30
2023-02-17T15:53:10.049Z,46.60
2023-02-17T15:55:39.234Z,52.80
2023-02-17T15:58:10.178Z,54.00
2023-02-17T16:03:10.042Z,54.50
2023-02-17T16:05:38.817Z,60.40
2023-02-17T16:08:07.752Z,57.30
2023-02-17T16:10:42.677Z,59.50
2023-02-17T16:13:13.064Z,59.20
2023-02-17T16:15:41.313Z,71.10
2023-02-17T16:18:16.865Z,65.50
2023-02-17T16:20:45.238Z,68.50
2023-02-17T16:23:15.249Z,74.80
2023-02-17T16:25:44.473Z,73.00
2023-02-17T16:28:18.044Z,73.70
2023-02-17T16:30:46.669Z,73.20
2023-02-17T16:33:15.344Z,67.50
2023-02-17T16:35:44.415Z,64.60
2023-02-17T16:38:20.936Z,65.30
2023-02-17T16:40:52.290Z,73.60
2023-02-17T16:43:25.448Z,66.10
2023-02-17T16:46:03.193Z,78.10
2023-02-17T16:48:33.268Z,80.10
2023-02-17T16:53:31.703Z,71.10
2023-02-17T16:56:00.018Z,67.00
2023-02-17T16:58:28.168Z,67.90
2023-02-17T17:00:56.621Z,73.70
2023-02-17T17:03:25.139Z,74.20
2023-02-17T17:05:53.840Z,74.30
2023-02-17T17:08:22.593Z,76.10
2023-02-17T17:10:53.518Z,63.80
2023-02-17T17:13:23.475Z,70.00
2023-02-17T17:15:52.135Z,67.80
2023-02-17T17:18:21.404Z,94.60
2023-02-17T17:20:49.944Z,74.50
2023-02-17T17:23:20.326Z,76.70
2023-02-17T17:25:48.862Z,71.80
2023-02-17T17:28:19.372Z,70.00
2023-02-17T17:30:48.561Z,73.70
2023-02-17T17:33:16.679Z,66.60
2023-02-17T17:35:45.486Z,71.20
2023-02-17T17:38:15.535Z,70.60
2023-02-17T17:40:53.552Z,71.80
2023-02-17T17:43:23.635Z,67.90
2023-02-17T17:45:51.940Z,82.50
2023-02-17T17:48:20.560Z,79.80
2023-02-17T17:50:49.354Z,83.10
2023-02-17T17:53:18.733Z,76.50
2023-02-17T17:55:48.333Z,76.90
2023-02-17T17:58:17.387Z,80.10
2023-02-17T18:00:50.573Z,71.80
2023-02-17T18:03:21.437Z,76.00
2023-02-17T18:05:50.114Z,76.90
2023-02-17T18:08:18.780Z,80.70
2023-02-17T18:10:47.606Z,85.80
2023-02-17T18:13:16.728Z,85.90
2023-02-17T18:15:45.482Z,81.70
2023-02-17T18:18:13.726Z,78.10
2023-02-17T18:20:41.925Z,77.00
2023-02-17T18:23:10.222Z,76.30
2023-02-17T18:25:39.212Z,78.60
2023-02-17T18:28:07.987Z,73.10
2023-02-17T18:30:36.203Z,76.50
2023-02-17T18:35:36.830Z,82.20
2023-02-17T18:38:05.173Z,79.20
2023-02-17T18:40:38.032Z,80.60
2023-02-17T18:45:34.842Z,74.00
2023-02-17T18:48:03.075Z,66.60
2023-02-17T18:50:33.263Z,71.60
2023-02-17T18:53:03.569Z,77.60
2023-02-17T18:55:33.325Z,73.90
2023-02-17T18:58:01.573Z,68.80
2023-02-17T19:00:30.176Z,71.80
2023-02-17T19:02:59.611Z,74.70
2023-02-17T19:05:29.196Z,71.80
2023-02-17T19:08:02.139Z,76.70
2023-02-17T19:10:31.104Z,88.50
2023-02-17T19:12:59.392Z,81.60
2023-02-17T19:15:29.176Z,90.10
2023-02-17T19:17:57.390Z,80.20
2023-02-17T19:20:28.035Z,76.20
2023-02-17T19:22:56.384Z,83.00
2023-02-17T19:25:25.134Z,84.80
2023-02-17T19:27:54.464Z,78.70
2023-02-17T19:30:22.847Z,82.30
2023-02-17T19:32:52.820Z,82.90
2023-02-17T19:35:21.593Z,86.70
2023-02-17T19:37:53.604Z,85.50
2023-02-17T19:40:23.398Z,91.50
2023-02-17T19:42:55.545Z,97.90
2023-02-17T19:45:23.769Z,89.90
2023-02-17T19:47:51.925Z,89.50
2023-02-17T19:50:20.831Z,98.70
2023-02-17T19:52:49.250Z,94.30
2023-02-17T19:55:17.989Z,92.70
2023-02-17T19:57:46.496Z,88.40
2023-02-17T20:00:15.153Z,98.30
2023-02-17T20:02:43.670Z,103.40
2023-02-17T20:05:12.377Z,95.60
2023-02-17T20:07:40.955Z,95.60
2023-02-17T20:10:11.365Z,99.60
2023-02-17T20:12:39.667Z,92.50
2023-02-17T20:15:08.545Z,94.60
2023-02-17T20:17:36.821Z,94.30
2023-02-17T20:20:06.793Z,94.30
2023-02-17T20:22:35.172Z,105.40
2023-02-17T20:25:03.425Z,110.60
2023-02-17T20:27:33.472Z,109.40
2023-02-17T20:30:04.075Z,99.10
2023-02-17T20:32:32.632Z,105.40
2023-02-17T20:35:00.862Z,97.60
2023-02-17T20:37:29.631Z,104.30
2023-02-17T20:39:58.052Z,100.20
2023-02-17T20:42:26.190Z,107.60
2023-02-17T20:44:56.420Z,102.90
2023-02-17T20:47:24.872Z,100.10
2023-02-17T20:49:54.046Z,109.00
2023-02-17T20:52:22.325Z,103.90
2023-02-17T20:54:51.115Z,92.90
2023-02-17T20:57:19.537Z,107.30
2023-02-17T20:59:48.205Z,101.70
2023-02-17T21:02:19.634Z,99.80
2023-02-17T21:04:48.110Z,105.90
2023-02-17T21:07:16.448Z,94.20
2023-02-17T21:09:45.684Z,108.90
2023-02-17T21:12:14.088Z,105.50
2023-02-17T21:14:42.194Z,88.60
2023-02-17T21:17:10.783Z,101.30
2023-02-17T21:19:40.684Z,88.00
2023-02-17T21:22:08.737Z,90.00
2023-02-17T21:24:37.732Z,99.00
2023-02-17T21:27:06.414Z,89.20
2023-02-17T21:29:34.562Z,95.90
2023-02-17T21:32:02.805Z,99.00
2023-02-17T21:34:31.154Z,99.90
2023-02-17T21:36:59.227Z,92.40
2023-02-17T21:39:27.443Z,106.00
2023-02-17T21:41:55.847Z,107.90
2023-02-17T21:44:42.869Z,93.10
2023-02-17T21:47:11.175Z,99.80
2023-02-17T21:49:44.330Z,100.80
2023-02-17T21:52:12.847Z,97.60
2023-02-17T21:54:41.244Z,98.80
2023-02-17T21:57:10.378Z,97.00
2023-02-17T21:59:38.589Z,105.20
2023-02-17T22:02:06.790Z,97.40
2023-02-17T22:04:35.145Z,100.20
2023-02-17T22:07:03.433Z,98.80
2023-02-17T22:09:31.929Z,98.10
2023-02-17T22:12:00.099Z,99.30
2023-02-17T22:14:28.549Z,95.50
2023-02-17T22:17:00.371Z,94.00
2023-02-17T22:19:31.335Z,99.10
2023-02-17T22:21:59.804Z,95.30
2023-02-17T22:24:28.087Z,87.80
2023-02-17T22:26:56.450Z,90.20
2023-02-17T22:29:24.490Z,84.60
2023-02-17T22:31:56.049Z,88.90
2023-02-17T22:34:27.641Z,91.90
2023-02-17T22:36:55.790Z,85.10
2023-02-17T22:39:23.926Z,86.90
2023-02-17T22:41:52.049Z,80.00
2023-02-17T22:44:20.237Z,89.50
2023-02-17T22:46:48.402Z,89.80
2023-02-17T22:49:16.586Z,87.80
2023-02-17T22:51:45.361Z,97.30
2023-02-17T22:54:13.787Z,97.50
2023-02-17T22:56:42.563Z,111.60
2023-02-17T22:59:10.810Z,96.00
2023-02-17T23:01:39.256Z,89.80
2023-02-17T23:04:07.593Z,103.80
2023-02-17T23:06:36.942Z,105.10
2023-02-17T23:09:06.302Z,98.50
2023-02-17T23:11:50.706Z,112.80
2023-02-17T23:14:20.077Z,104.80
2023-02-17T23:16:48.467Z,104.70
2023-02-17T23:19:20.663Z,106.20
2023-02-17T23:21:51.903Z,105.40
2023-02-17T23:24:20.601Z,104.00
2023-02-17T23:26:48.878Z,89.80
2023-02-17T23:29:17.199Z,93.90
2023-02-17T23:31:45.450Z,89.70
2023-02-17T23:34:14.422Z,86.90
2023-02-17T23:36:43.216Z,86.50
2023-02-17T23:39:11.417Z,82.80
2023-02-17T23:41:39.838Z,74.00
2023-02-17T23:44:09.989Z,79.70
2023-02-17T23:46:38.560Z,79.10
2023-02-17T23:49:06.781Z,73.80
2023-02-17T23:51:35.131Z,81.40
2023-02-17T23:54:03.489Z,81.90
2023-02-17T23:56:33.252Z,80.90
2023-02-17T23:59:02.060Z,79.10
